createdAt,value
2022-11-17T00:02:08.260Z,95.0
2022-11-17T00:07:08.268Z,95.5
2022-11-17T00:12:08.225Z,95.5
2022-11-17T00:17:08.231Z,95.5
2022-11-17T00:22:08.245Z,95.0
2022-11-17T00:27:08.396Z,95.5
2022-11-17T00:32:08.248Z,95.5
2022-11-17T00:37:08.241Z,96.0
2022-11-17T00:42:08.244Z,95.5
2022-11-17T00:47:08.248Z,96.0
2022-11-17T00:52:08.249Z,96.0
2022-11-17T00:57:08.250Z,95.5
2022-11-17T01:02:08.261Z,95.5
2022-11-17T01:07:08.338Z,95.0
2022-11-17T01:12:08.330Z,95.5
2022-11-17T01:17:08.270Z,96.0
2022-11-17T01:22:08.289Z,96.0
2022-11-17T01:27:08.260Z,96.0
2022-11-17T01:32:08.274Z,96.0
2022-11-17T01:37:08.277Z,96.0
2022-11-17T01:42:08.279Z,96.0
2022-11-17T01:47:08.295Z,96.0
2022-11-17T01:52:08.282Z,96.0
2022-11-17T01:57:08.282Z,96.0
2022-11-17T02:02:08.291Z,95.5
2022-11-17T02:07:08.331Z,95.0
2022-11-17T02:12:08.295Z,95.0
2022-11-17T02:17:11.719Z,94.5
2022-11-17T02:22:08.303Z,94.0
2022-11-17T02:27:08.298Z,93.5
2022-11-17T02:32:08.301Z,93.0
2022-11-17T02:37:08.311Z,92.5
2022-11-17T02:42:08.314Z,92.5
2022-11-17T02:47:08.316Z,92.0
2022-11-17T02:52:08.319Z,92.0
2022-11-17T02:57:08.323Z,91.5
2022-11-17T03:02:08.319Z,91.5
2022-11-17T03:07:08.366Z,91.5
2022-11-17T03:12:08.327Z,92.0
2022-11-17T03:17:08.330Z,92.0
2022-11-17T03:22:08.339Z,92.0
2022-11-17T03:27:08.338Z,93.0
2022-11-17T03:32:08.335Z,93.0
2022-11-17T03:37:08.334Z,93.0
2022-11-17T03:42:08.343Z,93.0
2022-11-17T03:47:08.341Z,93.0
2022-11-17T03:52:08.352Z,93.0
2022-11-17T03:57:08.365Z,93.0
2022-11-17T04:02:08.396Z,93.0
2022-11-17T04:07:08.435Z,93.0
2022-11-17T04:12:08.372Z,93.0
2022-11-17T04:17:08.365Z,93.0
2022-11-17T04:22:08.380Z,93.0
2022-11-17T04:27:08.376Z,93.0
2022-11-17T04:32:08.367Z,93.5
2022-11-17T04:37:08.467Z,93.5
2022-11-17T04:42:08.376Z,93.5
2022-11-17T04:47:08.374Z,93.5
2022-11-17T04:52:08.382Z,93.5
2022-11-17T04:57:08.401Z,93.0
2022-11-17T05:02:08.492Z,93.5
2022-11-17T05:07:08.492Z,93.5
2022-11-17T05:12:08.393Z,93.5
2022-11-17T05:17:09.946Z,93.5
2022-11-17T05:22:08.403Z,94.0
2022-11-17T05:27:08.397Z,94.0
2022-11-17T05:32:08.404Z,94.0
2022-11-17T05:37:08.406Z,94.5
2022-11-17T05:42:08.408Z,94.5
2022-11-17T05:47:08.416Z,95.0
2022-11-17T05:52:08.425Z,95.0
2022-11-17T05:57:08.424Z,95.0
2022-11-17T06:02:08.424Z,95.0
2022-11-17T06:07:08.472Z,95.0
2022-11-17T06:12:08.429Z,95.0
2022-11-17T06:17:08.437Z,95.0
2022-11-17T06:22:13.106Z,94.5
2022-11-17T06:27:08.439Z,94.5
2022-11-17T06:32:08.442Z,94.5
2022-11-17T06:37:08.436Z,94.5
2022-11-17T06:42:08.444Z,94.5
2022-11-17T06:47:08.457Z,94.0
2022-11-17T06:52:08.457Z,93.5
2022-11-17T06:57:08.460Z,93.5
2022-11-17T07:02:08.466Z,93.0
2022-11-17T07:07:08.498Z,92.5
2022-11-17T07:12:08.471Z,92.5
2022-11-17T07:17:08.488Z,92.0
2022-11-17T07:22:08.479Z,91.5
2022-11-17T07:27:08.481Z,91.5
2022-11-17T07:32:08.493Z,91.5
2022-11-17T07:37:08.488Z,91.5
2022-11-17T07:42:08.486Z,91.5
2022-11-17T07:47:09.451Z,91.0
2022-11-17T07:52:08.496Z,91.0
2022-11-17T07:57:08.499Z,91.0
2022-11-17T08:02:08.494Z,91.0
2022-11-17T08:07:08.556Z,91.0
2022-11-17T08:12:08.503Z,91.0
2022-11-17T08:17:08.506Z,91.0
2022-11-17T08:22:08.517Z,91.0
2022-11-17T08:27:08.520Z,90.5
2022-11-17T08:32:08.508Z,90.5
2022-11-17T08:37:08.510Z,90.5
2022-11-17T08:42:08.523Z,90.5
2022-11-17T08:47:08.522Z,90.5
2022-11-17T08:52:08.525Z,90.0
2022-11-17T08:57:08.546Z,90.0
2022-11-17T09:02:08.523Z,90.5
2022-11-17T09:07:08.552Z,90.0
2022-11-17T09:12:08.538Z,90.5
2022-11-17T09:17:08.533Z,90.0
2022-11-17T09:22:08.551Z,90.0
2022-11-17T09:27:08.540Z,90.0
2022-11-17T09:32:08.538Z,90.0
2022-11-17T09:37:08.542Z,90.0
2022-11-17T09:42:08.559Z,90.0
2022-11-17T09:47:08.545Z,90.0
2022-11-17T09:52:08.544Z,90.0
2022-11-17T09:57:08.550Z,90.0
2022-11-17T10:02:08.631Z,90.0
2022-11-17T10:07:08.591Z,90.0
2022-11-17T10:12:08.568Z,90.0
2022-11-17T10:17:08.595Z,90.5
2022-11-17T10:22:08.603Z,90.0
2022-11-17T10:27:08.582Z,89.0
2022-11-17T10:32:08.583Z,87.5
2022-11-17T10:37:08.599Z,86.5
2022-11-17T10:42:08.587Z,85.5
2022-11-17T10:47:08.597Z,85.5
2022-11-17T10:52:08.590Z,84.5
2022-11-17T10:57:08.596Z,83.0
2022-11-17T11:02:08.607Z,81.5
2022-11-17T11:07:08.663Z,80.5
2022-11-17T11:12:08.607Z,80.0
2022-11-17T11:17:08.612Z,79.5
2022-11-17T11:22:08.617Z,79.5
2022-11-17T11:27:08.609Z,78.5
2022-11-17T11:32:08.622Z,78.0
2022-11-17T11:37:08.621Z,78.0
2022-11-17T11:42:08.624Z,78.5
2022-11-17T11:47:08.622Z,78.5
2022-11-17T11:52:08.620Z,78.5
2022-11-17T11:57:08.635Z,78.0
2022-11-17T12:02:08.647Z,78.0
2022-11-17T12:07:08.654Z,78.0
2022-11-17T12:12:08.647Z,76.5
2022-11-17T12:17:08.645Z,76.5
2022-11-17T12:22:08.643Z,75.5
2022-11-17T12:27:08.662Z,75.5
2022-11-17T12:32:08.655Z,75.0
2022-11-17T12:37:08.652Z,74.5
2022-11-17T12:42:08.655Z,75.0
2022-11-17T12:47:08.657Z,75.0
2022-11-17T12:52:08.656Z,74.5
2022-11-17T12:57:08.660Z,75.0
2022-11-17T13:02:08.681Z,75.5
2022-11-17T13:07:08.705Z,76.0
2022-11-17T13:12:08.675Z,76.5
2022-11-17T13:17:08.673Z,76.5
2022-11-17T13:22:08.681Z,76.5
2022-11-17T13:27:08.684Z,76.5
2022-11-17T13:32:08.798Z,76.5
2022-11-17T13:37:08.687Z,76.0
2022-11-17T13:42:08.688Z,75.5
2022-11-17T13:47:08.695Z,75.0
2022-11-17T13:52:08.716Z,74.0
2022-11-17T13:57:08.702Z,73.0
2022-11-17T14:02:08.708Z,73.0
2022-11-17T14:07:08.744Z,72.0
2022-11-17T14:12:08.707Z,72.0
2022-11-17T14:17:08.713Z,72.0
2022-11-17T14:22:08.909Z,72.0
2022-11-17T14:27:08.731Z,71.5
2022-11-17T14:32:08.723Z,71.5
2022-11-17T14:37:10.436Z,71.5
2022-11-17T14:42:08.725Z,71.0
2022-11-17T14:47:08.841Z,71.5
2022-11-17T14:52:08.732Z,71.5
2022-11-17T14:57:08.836Z,71.5
2022-11-17T15:02:08.760Z,71.5
2022-11-17T15:07:08.813Z,71.5
2022-11-17T15:12:08.747Z,71.5
2022-11-17T15:17:13.925Z,72.0
2022-11-17T15:22:08.749Z,72.0
2022-11-17T15:27:08.765Z,72.5
2022-11-17T15:32:08.755Z,72.0
2022-11-17T15:37:08.763Z,72.5
2022-11-17T15:42:08.773Z,72.0
2022-11-17T15:47:08.759Z,72.5
2022-11-17T15:52:08.774Z,72.0
2022-11-17T15:57:08.775Z,72.0
2022-11-17T16:02:08.773Z,72.0
2022-11-17T16:07:08.810Z,72.5
2022-11-17T16:12:08.817Z,72.0
2022-11-17T16:17:08.778Z,72.0
2022-11-17T16:22:08.779Z,72.5
2022-11-17T16:27:08.780Z,72.0
2022-11-17T16:32:08.794Z,72.5
2022-11-17T16:37:08.783Z,72.5
2022-11-17T16:42:08.790Z,72.0
2022-11-17T16:47:08.793Z,72.0
2022-11-17T16:52:08.796Z,72.5
2022-11-17T16:57:08.795Z,72.0
2022-11-17T17:02:08.802Z,72.5
2022-11-17T17:07:08.838Z,72.5
2022-11-17T17:12:08.810Z,72.5
2022-11-17T17:17:08.807Z,72.5
2022-11-17T17:22:08.807Z,72.5
2022-11-17T17:27:08.823Z,73.0
2022-11-17T17:32:08.820Z,73.0
2022-11-17T17:37:08.815Z,73.5
2022-11-17T17:42:08.817Z,73.5
2022-11-17T17:47:08.835Z,74.0
2022-11-17T17:52:13.659Z,74.0
2022-11-17T17:57:08.827Z,74.5
2022-11-17T18:02:08.825Z,75.0
2022-11-17T18:07:08.861Z,75.0
2022-11-17T18:12:08.829Z,75.5
2022-11-17T18:17:08.829Z,75.5
2022-11-17T18:22:08.835Z,75.5
2022-11-17T18:27:08.840Z,75.5
2022-11-17T18:32:08.839Z,76.0
2022-11-17T18:37:08.845Z,76.0
2022-11-17T18:42:08.847Z,76.5
2022-11-17T18:47:08.848Z,76.5
2022-11-17T18:52:08.847Z,77.0
2022-11-17T18:57:08.844Z,77.0
2022-11-17T19:02:09.065Z,77.5
2022-11-17T19:07:08.887Z,77.5
2022-11-17T19:12:08.848Z,77.5
2022-11-17T19:17:08.871Z,78.0
2022-11-17T19:22:08.879Z,78.0
2022-11-17T19:27:08.866Z,78.5
2022-11-17T19:32:08.864Z,78.5
2022-11-17T19:37:08.881Z,78.5
2022-11-17T19:42:08.871Z,79.0
2022-11-17T19:47:08.873Z,79.0
2022-11-17T19:52:08.974Z,79.0
2022-11-17T19:57:08.883Z,79.5
2022-11-17T20:02:08.984Z,79.5
2022-11-17T20:07:08.968Z,80.0
2022-11-17T20:12:08.883Z,80.0
2022-11-17T20:17:08.900Z,80.5
2022-11-17T20:22:08.893Z,80.0
2022-11-17T20:27:08.904Z,80.0
2022-11-17T20:32:08.995Z,80.5
2022-11-17T20:37:09.006Z,80.5
2022-11-17T20:42:08.908Z,81.0
2022-11-17T20:47:08.894Z,81.0
2022-11-17T20:52:13.172Z,81.5
2022-11-17T20:57:09.007Z,81.5
2022-11-17T21:02:09.018Z,81.5
2022-11-17T21:07:08.957Z,81.5
2022-11-17T21:12:09.012Z,82.0
2022-11-17T21:17:09.092Z,81.5
2022-11-17T21:22:08.923Z,82.0
2022-11-17T21:27:09.027Z,82.0
2022-11-17T21:32:08.952Z,82.0
2022-11-17T21:37:09.029Z,82.5
2022-11-17T21:42:09.041Z,82.5
2022-11-17T21:47:09.043Z,83.0
2022-11-17T21:52:09.039Z,83.0
2022-11-17T21:57:09.045Z,83.0
2022-11-17T22:02:09.040Z,83.0
2022-11-17T22:07:09.127Z,83.5
2022-11-17T22:12:09.038Z,83.5
2022-11-17T22:17:09.052Z,84.0
2022-11-17T22:22:09.053Z,84.0
2022-11-17T22:27:09.058Z,84.0
2022-11-17T22:32:09.053Z,84.0
2022-11-17T22:37:09.054Z,84.5
2022-11-17T22:42:09.066Z,84.5
2022-11-17T22:47:09.063Z,84.5
2022-11-17T22:52:09.064Z,84.5
2022-11-17T22:57:09.067Z,85.0
2022-11-17T23:02:09.072Z,85.0
2022-11-17T23:07:09.125Z,85.0
2022-11-17T23:12:09.076Z,85.5
2022-11-17T23:17:09.075Z,86.0
2022-11-17T23:22:09.084Z,86.0
2022-11-17T23:27:09.088Z,86.0
2022-11-17T23:32:09.086Z,86.0
2022-11-17T23:37:09.087Z,86.0
2022-11-17T23:42:09.092Z,86.0
2022-11-17T23:47:09.095Z,86.0
2022-11-17T23:52:09.097Z,86.0
2022-11-17T23:57:09.092Z,86.0
